Time;durP1;ratioP1;P1;durP2;ratioP2;P2;SDS_P1;SDS_P2;PMS_P1;PMS_P2;Temp;Humidity;BMP_temperature;BMP_pressure;BME280_temperature;BME280_humidity;BME280_pressure;Samples;Min_cycle;Max_cycle;Signal;HPM_P1;HPM_P2
2021/09/29 00:02:04;;;;;;;3.57;3.13;;;11.30;99.90;;;;;;5071592;28;20178;-62
2021/09/29 00:04:30;;;;;;;4.50;2.60;;;11.30;99.90;;;;;;5069476;28;20700;-62
2021/09/29 00:06:55;;;;;;;3.60;3.10;;;11.30;99.90;;;;;;5051450;28;20518;-63
2021/09/29 00:09:21;;;;;;;4.33;2.50;;;11.30;99.90;;;;;;5060854;28;20609;-63
2021/09/29 00:11:47;;;;;;;5.60;3.17;;;11.30;99.90;;;;;;5071513;28;20646;-63
2021/09/29 00:14:12;;;;;;;5.63;2.70;;;11.30;99.90;;;;;;5071614;28;20177;-63
2021/09/29 00:16:38;;;;;;;4.90;2.83;;;11.30;99.90;;;;;;5071614;28;20167;-62
2021/09/29 00:19:04;;;;;;;2.77;2.53;;;11.30;99.90;;;;;;5071261;28;20194;-63
2021/09/29 00:21:29;;;;;;;5.07;3.00;;;11.30;99.90;;;;;;5071472;28;20202;-63
2021/09/29 00:23:55;;;;;;;4.90;2.73;;;11.30;99.90;;;;;;5071497;28;20190;-62
2021/09/29 00:26:20;;;;;;;3.20;2.97;;;11.30;99.90;;;;;;5071448;28;20166;-63
2021/09/29 00:28:46;;;;;;;3.00;2.60;;;11.30;99.90;;;;;;5070657;28;20693;-62
2021/09/29 00:34:06;;;;;;;2.90;2.70;;;11.30;99.90;;;;;;5071377;28;20221;-62
2021/09/29 00:36:31;;;;;;;6.87;3.50;;;11.30;99.90;;;;;;5072111;28;20462;-62
2021/09/29 00:38:57;;;;;;;2.93;2.63;;;11.20;99.90;;;;;;5075109;28;20827;-62
2021/09/29 00:41:22;;;;;;;4.00;3.13;;;11.30;99.90;;;;;;5075111;28;20226;-62
2021/09/29 00:43:48;;;;;;;3.67;2.93;;;11.30;99.90;;;;;;5075378;28;20170;-63
2021/09/29 00:46:14;;;;;;;3.40;2.90;;;11.30;99.90;;;;;;5075257;28;20167;-64
2021/09/29 00:48:39;;;;;;;3.10;2.90;;;11.30;99.90;;;;;;5074345;28;20281;-62
2021/09/29 00:51:06;;;;;;;2.90;2.70;;;11.30;99.90;;;;;;5074953;28;20185;-62
2021/09/29 00:53:32;;;;;;;4.23;2.93;;;11.20;99.90;;;;;;5075157;28;20164;-62
2021/09/29 00:55:57;;;;;;;6.53;3.30;;;11.20;99.90;;;;;;5075626;28;20461;-62
2021/09/29 00:58:23;;;;;;;4.33;3.50;;;11.30;99.90;;;;;;5074585;28;20993;-62
2021/09/29 01:00:49;;;;;;;4.00;3.33;;;11.30;99.90;;;;;;5074427;28;20202;-63
2021/09/29 01:03:14;;;;;;;3.77;3.37;;;11.30;99.90;;;;;;5074838;28;20254;-62
2021/09/29 01:05:42;;;;;;;3.43;3.10;;;11.30;99.90;;;;;;5074933;28;20634;-62
2021/09/29 01:08:13;;;;;;;7.00;3.97;;;11.40;99.90;;;;;;5074377;28;20543;-62
2021/09/29 01:11:01;;;;;;;4.73;3.67;;;11.40;99.90;;;;;;5074165;28;20425;-62
2021/09/29 01:13:36;;;;;;;7.40;3.73;;;11.40;99.90;;;;;;5074839;28;20409;-62
2021/09/29 01:16:05;;;;;;;4.17;3.40;;;11.40;99.90;;;;;;5074783;28;20412;-62
2021/09/29 01:18:35;;;;;;;3.43;2.87;;;11.30;99.90;;;;;;5074251;28;20434;-62
2021/09/29 01:21:04;;;;;;;4.50;3.50;;;11.30;99.90;;;;;;5074410;28;20454;-65
2021/09/29 01:24:05;;;;;;;4.07;3.30;;;11.50;99.90;;;;;;5074537;28;20419;-63
2021/09/29 01:26:36;;;;;;;10.20;3.60;;;11.40;99.90;;;;;;5074566;28;20405;-62
2021/09/29 01:29:09;;;;;;;6.87;3.37;;;11.40;99.90;;;;;;5073665;28;20413;-64
2021/09/29 01:31:35;;;;;;;6.20;3.53;;;11.40;99.90;;;;;;5074636;28;20407;-62
2021/09/29 01:34:03;;;;;;;8.10;3.73;;;11.50;99.90;;;;;;5074340;28;20432;-62
2021/09/29 01:36:29;;;;;;;6.20;3.57;;;11.50;99.90;;;;;;5074434;28;20445;-63
2021/09/29 01:38:58;;;;;;;5.23;3.73;;;11.40;99.90;;;;;;5073857;28;20448;-62
2021/09/29 01:41:28;;;;;;;3.63;3.03;;;11.40;99.90;;;;;;5074204;28;20452;-65
2021/09/29 01:43:54;;;;;;;6.70;3.27;;;11.50;99.90;;;;;;5074074;28;20405;-63
2021/09/29 01:46:20;;;;;;;3.27;3.07;;;11.50;99.90;;;;;;5074144;28;20452;-62
2021/09/29 01:49:22;;;;;;;5.87;3.90;;;11.50;99.90;;;;;;5072622;28;20478;-64
2021/09/29 01:51:49;;;;;;;4.53;3.07;;;11.50;99.90;;;;;;5073885;28;20909;-62
2021/09/29 01:54:17;;;;;;;5.40;4.00;;;11.50;99.90;;;;;;5073961;28;20440;-62
2021/09/29 01:56:44;;;;;;;4.43;3.57;;;11.50;99.90;;;;;;5074070;28;20770;-63
2021/09/29 01:59:10;;;;;;;5.63;3.63;;;11.50;99.90;;;;;;5073593;28;20434;-62
2021/09/29 02:01:37;;;;;;;6.37;4.33;;;11.50;99.90;;;;;;5073638;28;20863;-62
2021/09/29 02:04:07;;;;;;;7.13;3.60;;;11.50;99.90;;;;;;5073819;28;20409;-62
2021/09/29 02:06:50;;;;;;;12.93;3.97;;;11.50;99.90;;;;;;5074233;28;20397;-63
2021/09/29 02:09:16;;;;;;;5.93;3.47;;;11.50;99.90;;;;;;5073245;28;20428;-62
2021/09/29 02:11:42;;;;;;;7.97;4.20;;;11.50;99.90;;;;;;5073668;28;20422;-63
2021/09/29 02:14:08;;;;;;;4.80;4.33;;;11.50;99.90;;;;;;5073772;28;20413;-62
2021/09/29 02:16:35;;;;;;;5.60;3.73;;;11.50;99.90;;;;;;5073591;28;20413;-63
2021/09/29 02:19:00;;;;;;;5.30;3.53;;;11.50;99.90;;;;;;5073257;28;20429;-62
2021/09/29 02:21:26;;;;;;;3.47;3.07;;;11.60;99.90;;;;;;5073372;28;20445;-63
2021/09/29 02:23:51;;;;;;;3.70;3.40;;;11.50;99.90;;;;;;5073602;28;20166;-65
2021/09/29 02:26:17;;;;;;;4.00;3.37;;;11.50;99.90;;;;;;5055481;28;20275;-63
2021/09/29 02:28:43;;;;;;;7.80;3.70;;;11.50;99.90;;;;;;5073080;28;20666;-62
2021/09/29 02:31:08;;;;;;;4.33;3.70;;;11.50;99.90;;;;;;5073341;28;20178;-63
2021/09/29 02:33:34;;;;;;;3.73;3.40;;;11.50;99.90;;;;;;5073399;28;20526;-65
2021/09/29 02:35:59;;;;;;;3.37;3.17;;;11.40;99.90;;;;;;5073289;28;20174;-63
2021/09/29 02:38:25;;;;;;;6.07;3.67;;;11.40;99.90;;;;;;5072773;28;20273;-63
2021/09/29 02:40:51;;;;;;;3.90;3.50;;;11.40;99.90;;;;;;5073384;28;20195;-62
2021/09/29 02:43:16;;;;;;;10.10;4.43;;;11.30;99.90;;;;;;5073177;28;20586;-63
2021/09/29 02:45:44;;;;;;;4.93;3.70;;;11.30;99.90;;;;;;5073333;28;20174;-63
2021/09/29 02:48:10;;;;;;;4.53;3.40;;;11.30;99.90;;;;;;5072680;28;20600;-63
2021/09/29 02:50:36;;;;;;;4.77;3.60;;;11.30;99.90;;;;;;5072788;28;20408;-63
2021/09/29 02:53:01;;;;;;;7.47;4.10;;;11.20;99.90;;;;;;5072960;28;20820;-63
2021/09/29 02:55:27;;;;;;;5.70;4.10;;;11.30;99.90;;;;;;5073023;28;20698;-63
2021/09/29 02:57:53;;;;;;;5.17;4.13;;;11.30;99.90;;;;;;5072632;28;20200;-65
2021/09/29 03:00:19;;;;;;;6.27;4.10;;;11.20;99.90;;;;;;5071445;28;20201;-63
2021/09/29 03:02:44;;;;;;;4.77;3.77;;;11.20;99.90;;;;;;5072765;28;20406;-63
2021/09/29 03:05:10;;;;;;;8.03;3.80;;;11.20;99.90;;;;;;5072500;28;20171;-62
2021/09/29 03:07:35;;;;;;;4.70;4.30;;;11.20;99.90;;;;;;5072567;28;20659;-63
2021/09/29 03:10:01;;;;;;;4.10;3.60;;;11.30;99.90;;;;;;5072111;28;20197;-64
2021/09/29 03:12:27;;;;;;;4.10;3.50;;;11.30;99.90;;;;;;5072599;28;20182;-62
2021/09/29 03:14:52;;;;;;;4.40;4.00;;;11.20;99.90;;;;;;5072512;28;20181;-63
2021/09/29 03:17:18;;;;;;;3.73;3.43;;;11.20;99.90;;;;;;5072753;28;20181;-63
2021/09/29 03:19:43;;;;;;;4.23;3.20;;;11.20;99.90;;;;;;5071824;28;20195;-64
2021/09/29 03:22:09;;;;;;;5.60;4.03;;;11.10;99.90;;;;;;5072442;28;20332;-63
2021/09/29 03:24:34;;;;;;;3.93;3.53;;;11.10;99.90;;;;;;5072285;28;20635;-63
2021/09/29 03:27:00;;;;;;;3.80;3.50;;;11.20;99.90;;;;;;5072261;28;20589;-63
2021/09/29 03:29:26;;;;;;;3.63;3.33;;;11.10;99.90;;;;;;5071832;28;20191;-65
2021/09/29 03:31:51;;;;;;;3.57;3.00;;;11.20;99.90;;;;;;5072181;28;20170;-63
2021/09/29 03:34:17;;;;;;;3.67;3.30;;;11.10;99.90;;;;;;5072108;28;20182;-62
2021/09/29 03:36:42;;;;;;;7.10;3.83;;;11.10;99.90;;;;;;5072117;28;20177;-63
2021/09/29 03:39:08;;;;;;;4.10;3.80;;;11.10;99.90;;;;;;5071705;28;20218;-65
2021/09/29 03:41:34;;;;;;;9.90;3.30;;;11.10;99.90;;;;;;5071857;28;20243;-63
2021/09/29 03:44:00;;;;;;;5.97;3.83;;;11.20;99.90;;;;;;5072067;28;20196;-63
2021/09/29 03:46:25;;;;;;;3.53;2.70;;;11.20;99.90;;;;;;5072478;28;20167;-63
2021/09/29 03:48:51;;;;;;;5.40;3.50;;;11.20;99.90;;;;;;5071482;28;20800;-63
2021/09/29 03:51:16;;;;;;;7.70;4.97;;;11.30;99.90;;;;;;5071831;28;20588;-66
2021/09/29 03:53:42;;;;;;;3.70;3.40;;;11.20;99.90;;;;;;5071935;28;20193;-62
2021/09/29 03:56:08;;;;;;;4.40;4.10;;;11.30;99.90;;;;;;5071931;28;20175;-63
2021/09/29 03:58:33;;;;;;;3.90;3.60;;;11.20;99.90;;;;;;5071434;28;20218;-63
2021/09/29 04:00:59;;;;;;;3.03;2.80;;;11.10;99.90;;;;;;5071681;28;20216;-65
2021/09/29 04:03:24;;;;;;;3.77;3.40;;;11.10;99.90;;;;;;5071719;28;20216;-64
2021/09/29 04:05:50;;;;;;;4.70;3.37;;;11.10;99.90;;;;;;5071761;28;20186;-63
2021/09/29 04:08:16;;;;;;;7.60;3.83;;;11.20;99.90;;;;;;5071392;28;20192;-63
2021/09/29 04:10:42;;;;;;;8.80;4.50;;;11.20;99.90;;;;;;5071368;28;20270;-63
2021/09/29 04:13:08;;;;;;;7.20;3.57;;;11.20;99.90;;;;;;5071761;28;20917;-63
2021/09/29 04:15:34;;;;;;;3.80;3.13;;;11.10;99.90;;;;;;5071675;28;20413;-63
2021/09/29 04:18:01;;;;;;;6.63;3.10;;;11.20;99.90;;;;;;5071168;28;20432;-63
2021/09/29 04:20:27;;;;;;;5.80;3.50;;;11.30;99.90;;;;;;5071416;28;20456;-63
2021/09/29 04:22:53;;;;;;;5.13;3.10;;;11.30;99.90;;;;;;5071607;28;20419;-63
2021/09/29 04:25:20;;;;;;;4.00;3.00;;;11.30;99.90;;;;;;5071611;28;20201;-63
2021/09/29 04:27:46;;;;;;;3.70;2.73;;;11.30;99.90;;;;;;5071449;28;20762;-63
2021/09/29 04:30:14;;;;;;;5.93;3.10;;;11.30;99.90;;;;;;5071262;28;20834;-63
2021/09/29 04:32:41;;;;;;;2.97;2.77;;;11.30;99.90;;;;;;5071435;28;20285;-63
2021/09/29 04:35:07;;;;;;;3.60;3.30;;;11.40;99.90;;;;;;5071672;28;20421;-63
2021/09/29 04:37:33;;;;;;;8.70;4.00;;;11.40;99.90;;;;;;5071627;28;20418;-63
2021/09/29 04:39:58;;;;;;;3.07;2.83;;;11.40;99.90;;;;;;5071068;28;20448;-63
2021/09/29 04:42:24;;;;;;;9.03;3.30;;;11.40;99.90;;;;;;5071440;28;20253;-62
2021/09/29 04:44:50;;;;;;;2.63;2.43;;;11.40;99.90;;;;;;5071522;28;20630;-63
2021/09/29 04:47:15;;;;;;;4.00;2.63;;;11.50;99.90;;;;;;5071287;28;20167;-62
2021/09/29 04:49:41;;;;;;;3.93;3.37;;;11.50;99.90;;;;;;5071054;28;20213;-63
2021/09/29 04:52:07;;;;;;;7.23;3.80;;;11.40;99.90;;;;;;5071310;28;20171;-64
2021/09/29 04:54:33;;;;;;;5.60;3.20;;;11.40;99.90;;;;;;5071256;28;20174;-64
2021/09/29 04:56:58;;;;;;;3.43;2.90;;;11.40;99.90;;;;;;5071226;28;20812;-62
2021/09/29 04:59:24;;;;;;;4.27;3.00;;;11.50;99.90;;;;;;5070892;28;20187;-62
2021/09/29 05:01:49;;;;;;;3.20;3.00;;;11.50;99.90;;;;;;5070998;28;20271;-63
2021/09/29 05:04:15;;;;;;;4.40;3.27;;;11.50;99.90;;;;;;5071244;28;20171;-65
2021/09/29 05:06:41;;;;;;;4.03;3.07;;;11.50;99.90;;;;;;5071259;28;20174;-62
2021/09/29 05:09:08;;;;;;;3.33;3.03;;;11.50;99.90;;;;;;5070740;28;20857;-63
2021/09/29 05:11:39;;;;;;;5.20;3.60;;;11.50;99.90;;;;;;5071098;28;20694;-62
2021/09/29 05:14:05;;;;;;;11.80;2.97;;;11.50;99.90;;;;;;5071168;28;20413;-63
2021/09/29 05:16:30;;;;;;;2.97;2.77;;;11.50;99.90;;;;;;5070953;28;20415;-63
2021/09/29 05:18:56;;;;;;;4.10;3.07;;;11.50;99.90;;;;;;5070790;28;20198;-63
2021/09/29 05:21:22;;;;;;;4.33;3.13;;;11.50;99.90;;;;;;5070933;28;20203;-64
2021/09/29 05:23:47;;;;;;;2.90;2.70;;;11.50;99.90;;;;;;5073505;28;20205;-63
2021/09/29 05:26:17;;;;;;;4.00;2.80;;;11.50;99.90;;;;;;5074623;28;20179;-63
2021/09/29 05:28:47;;;;;;;3.30;2.80;;;11.50;99.90;;;;;;5074194;28;20205;-63
2021/09/29 05:31:13;;;;;;;3.43;2.63;;;11.50;99.90;;;;;;5074427;28;20405;-63
2021/09/29 05:33:39;;;;;;;3.77;3.47;;;11.50;99.90;;;;;;5074434;28;20440;-63
2021/09/29 05:36:04;;;;;;;4.10;2.70;;;11.50;99.90;;;;;;5074414;28;20185;-65
2021/09/29 05:38:30;;;;;;;2.90;2.60;;;11.40;99.90;;;;;;5074010;28;20195;-63
2021/09/29 05:40:55;;;;;;;3.93;3.10;;;11.50;99.90;;;;;;5074218;28;20208;-63
2021/09/29 05:43:21;;;;;;;4.67;3.17;;;11.40;99.90;;;;;;5074209;28;20217;-63
2021/09/29 05:45:47;;;;;;;4.97;3.40;;;11.30;99.90;;;;;;5074266;28;20621;-64
2021/09/29 05:48:12;;;;;;;3.97;2.63;;;11.40;99.90;;;;;;5073877;28;20561;-63
2021/09/29 05:50:38;;;;;;;6.17;3.27;;;11.40;99.90;;;;;;5074111;28;20171;-63
2021/09/29 05:53:03;;;;;;;5.97;5.50;;;11.40;99.90;;;;;;5074035;28;20183;-63
2021/09/29 05:55:29;;;;;;;8.60;3.20;;;11.40;99.90;;;;;;5074111;28;20203;-63
2021/09/29 05:57:55;;;;;;;2.00;1.90;;;11.40;99.90;;;;;;5073814;28;20221;-65
2021/09/29 06:00:20;;;;;;;4.33;2.50;;;11.40;99.90;;;;;;5073653;28;20244;-67
2021/09/29 06:02:46;;;;;;;3.30;2.70;;;11.40;99.90;;;;;;5072341;28;20171;-63
2021/09/29 06:05:12;;;;;;;3.83;2.73;;;11.40;99.90;;;;;;5073757;28;20261;-63
2021/09/29 06:07:38;;;;;;;4.97;2.50;;;11.40;99.90;;;;;;5073612;28;20178;-65
2021/09/29 06:10:05;;;;;;;3.63;3.33;;;11.30;99.90;;;;;;5073215;28;20521;-65
2021/09/29 06:12:30;;;;;;;6.53;2.60;;;11.30;99.90;;;;;;5073520;28;20418;-63
2021/09/29 06:14:56;;;;;;;5.30;2.40;;;11.30;99.90;;;;;;5073606;28;20408;-65
2021/09/29 06:17:27;;;;;;;5.20;2.83;;;11.40;99.90;;;;;;5073247;28;20174;-65
2021/09/29 06:19:54;;;;;;;3.93;2.77;;;11.40;99.90;;;;;;5073156;28;20222;-65
2021/09/29 06:22:21;;;;;;;2.47;2.27;;;11.40;99.90;;;;;;5073522;28;20409;-65
2021/09/29 06:24:47;;;;;;;2.50;2.30;;;11.50;99.90;;;;;;5072258;28;20412;-65
2021/09/29 06:27:13;;;;;;;3.47;2.50;;;11.50;99.90;;;;;;5073270;28;20484;-64
2021/09/29 06:29:38;;;;;;;3.33;2.40;;;11.50;99.90;;;;;;5072992;28;20428;-66
2021/09/29 06:32:04;;;;;;;2.57;2.33;;;11.60;99.90;;;;;;5073263;28;20414;-66
2021/09/29 06:34:30;;;;;;;3.60;2.43;;;11.60;99.90;;;;;;5073285;28;20182;-66
2021/09/29 06:36:56;;;;;;;4.07;2.27;;;11.70;99.90;;;;;;5073268;28;20410;-66
2021/09/29 06:39:22;;;;;;;3.50;3.20;;;11.70;99.90;;;;;;5072853;28;20193;-64
2021/09/29 06:41:48;;;;;;;6.90;2.30;;;11.70;99.90;;;;;;5072898;28;20535;-66
2021/09/29 06:44:13;;;;;;;3.10;2.43;;;11.70;99.90;;;;;;5073109;28;20181;-66
2021/09/29 06:46:39;;;;;;;6.03;3.00;;;11.70;99.90;;;;;;5073093;28;20249;-64
2021/09/29 06:49:05;;;;;;;3.13;2.40;;;11.70;99.90;;;;;;5072813;28;20274;-65
2021/09/29 06:51:31;;;;;;;2.70;2.50;;;11.70;99.90;;;;;;5072950;28;20421;-64
2021/09/29 06:53:57;;;;;;;3.50;1.90;;;11.80;99.90;;;;;;5072921;28;20171;-64
2021/09/29 06:56:23;;;;;;;2.47;2.27;;;11.80;99.90;;;;;;5073311;28;20423;-66
2021/09/29 06:58:51;;;;;;;5.20;3.13;;;11.80;99.90;;;;;;5072388;28;20527;-65
2021/09/29 07:01:17;;;;;;;2.60;2.40;;;11.80;99.90;;;;;;5072635;28;20202;-65
2021/09/29 07:03:43;;;;;;;7.23;2.60;;;11.80;99.90;;;;;;5072734;28;20404;-66
2021/09/29 07:06:09;;;;;;;4.00;2.20;;;11.70;99.90;;;;;;5072760;28;20163;-66
2021/09/29 07:08:35;;;;;;;4.50;3.00;;;11.70;99.90;;;;;;5072552;28;20436;-65
2021/09/29 07:11:00;;;;;;;4.17;3.07;;;11.60;99.90;;;;;;5072273;28;20910;-65
2021/09/29 07:13:26;;;;;;;3.43;2.20;;;11.60;99.90;;;;;;5072514;28;20174;-65
2021/09/29 07:15:51;;;;;;;2.87;2.27;;;11.50;99.90;;;;;;5072541;28;20181;-65
2021/09/29 07:18:17;;;;;;;2.17;2.07;;;11.50;99.90;;;;;;5072214;28;20225;-67
2021/09/29 07:20:43;;;;;;;2.57;2.07;;;11.40;99.90;;;;;;5054385;28;20575;-67
2021/09/29 07:23:10;;;;;;;5.90;2.70;;;11.30;99.90;;;;;;5072395;28;20257;-68
2021/09/29 07:25:37;;;;;;;1.83;1.77;;;11.30;99.90;;;;;;5072124;28;20409;-65
2021/09/29 07:28:04;;;;;;;3.37;2.70;;;11.30;99.90;;;;;;5071730;28;20515;-65
2021/09/29 07:30:30;;;;;;;2.43;2.10;;;11.30;99.90;;;;;;5072215;28;20448;-67
2021/09/29 07:32:58;;;;;;;1.83;1.70;;;11.30;99.90;;;;;;5072155;28;20412;-66
2021/09/29 07:35:23;;;;;;;1.80;1.70;;;11.30;99.90;;;;;;5072285;28;20432;-66
2021/09/29 07:37:51;;;;;;;4.80;2.60;;;11.30;99.90;;;;;;5071915;28;20409;-66
2021/09/29 07:40:16;;;;;;;2.10;2.00;;;11.30;99.90;;;;;;5071539;28;20202;-66
2021/09/29 07:42:42;;;;;;;1.80;1.70;;;11.40;99.90;;;;;;5072063;28;20405;-65
2021/09/29 07:45:09;;;;;;;3.60;1.87;;;11.50;99.90;;;;;;5071522;28;20200;-66
2021/09/29 07:47:35;;;;;;;3.23;2.17;;;11.60;99.90;;;;;;5071822;28;20199;-65
2021/09/29 07:50:01;;;;;;;2.20;1.93;;;11.70;99.90;;;;;;5071609;28;20807;-66
2021/09/29 07:52:27;;;;;;;2.00;1.77;;;11.80;99.90;;;;;;5072007;28;20424;-66
2021/09/29 07:54:53;;;;;;;2.40;1.60;;;11.80;99.90;;;;;;5071782;28;20174;-65
2021/09/29 07:57:19;;;;;;;2.50;1.60;;;11.90;99.90;;;;;;5072106;28;20886;-66
2021/09/29 07:59:45;;;;;;;1.83;1.73;;;11.90;99.90;;;;;;5071396;28;20519;-67
2021/09/29 08:02:11;;;;;;;2.00;1.63;;;11.80;99.90;;;;;;5071973;28;20554;-65
2021/09/29 08:04:36;;;;;;;1.73;1.63;;;11.90;99.90;;;;;;5071758;28;20491;-67
2021/09/29 08:07:02;;;;;;;1.87;1.40;;;12.00;99.90;;;;;;5071835;28;20174;-66
2021/09/29 08:09:28;;;;;;;2.90;1.50;;;12.10;99.90;;;;;;5071206;28;20206;-66
2021/09/29 08:11:54;;;;;;;5.60;2.00;;;12.30;99.90;;;;;;5071710;28;20163;-67
2021/09/29 08:14:20;;;;;;;2.70;1.63;;;12.50;99.90;;;;;;5071615;28;20437;-67
2021/09/29 08:16:47;;;;;;;1.73;1.63;;;12.70;99.90;;;;;;5071844;28;20406;-67
2021/09/29 08:19:14;;;;;;;1.30;1.30;;;12.80;99.90;;;;;;5071208;28;20481;-66
2021/09/29 08:21:40;;;;;;;1.60;1.50;;;12.80;99.90;;;;;;5071526;28;20487;-67
2021/09/29 08:24:35;;;;;;;1.50;1.40;;;12.70;99.90;;;;;;5071482;28;20414;-67
2021/09/29 08:27:07;;;;;;;2.90;1.70;;;12.60;99.90;;;;;;5070545;28;20789;-65
2021/09/29 08:40:40;;;;;;;2.00;1.40;;;12.20;99.90;;;;;;5071132;28;20431;-66
2021/09/29 08:45:02;;;;;;;1.43;1.33;;;12.10;99.90;;;;;;5071849;28;20413;-67
2021/09/29 08:47:36;;;;;;;1.23;1.23;;;12.10;99.90;;;;;;5071582;28;20413;-65
2021/09/29 08:50:17;;;;;;;1.30;1.30;;;12.00;99.90;;;;;;5071006;28;20970;-65
2021/09/29 09:16:58;;;;;;;1.00;1.00;;;11.00;99.90;;;;;;5074868;28;20415;-66
2021/09/29 09:19:29;;;;;;;1.07;0.90;;;11.10;99.90;;;;;;5074370;28;20921;-66
2021/09/29 09:22:01;;;;;;;0.80;0.80;;;11.20;99.90;;;;;;5074503;28;20481;-65
2021/09/29 09:24:29;;;;;;;1.30;1.20;;;11.30;99.90;;;;;;5074291;28;20427;-65
2021/09/29 09:27:10;;;;;;;1.67;1.17;;;11.50;99.90;;;;;;5074619;28;20416;-65
2021/09/29 09:29:45;;;;;;;0.80;0.80;;;12.10;99.90;;;;;;5074416;28;20432;-66
2021/09/29 09:32:13;;;;;;;1.10;1.10;;;12.60;99.90;;;;;;5074501;28;20394;-67
2021/09/29 09:34:39;;;;;;;1.57;1.50;;;12.70;99.90;;;;;;5074474;28;20425;-68
2021/09/29 09:37:28;;;;;;;0.80;0.80;;;12.90;99.90;;;;;;5074344;28;20422;-65
2021/09/29 09:40:16;;;;;;;1.00;1.00;;;13.10;99.90;;;;;;5073835;28;20478;-66
2021/09/29 09:42:44;;;;;;;1.07;1.07;;;13.20;99.90;;;;;;5074403;28;20409;-66
2021/09/29 09:45:10;;;;;;;0.70;0.70;;;13.30;99.90;;;;;;5074169;28;20421;-66
2021/09/29 09:47:39;;;;;;;0.90;0.90;;;13.30;99.90;;;;;;5074248;28;20454;-65
2021/09/29 09:50:05;;;;;;;1.17;0.80;;;13.30;99.90;;;;;;5073877;28;20443;-65
2021/09/29 09:52:32;;;;;;;0.80;0.80;;;13.10;99.90;;;;;;5074367;28;20447;-65
2021/09/29 09:55:09;;;;;;;0.70;0.70;;;13.10;99.90;;;;;;5074111;28;20417;-65
2021/09/29 09:57:36;;;;;;;0.70;0.70;;;13.00;99.90;;;;;;5073880;28;20412;-65
2021/09/29 10:00:05;;;;;;;0.70;0.70;;;12.90;99.90;;;;;;5073553;28;20951;-65
2021/09/29 10:02:47;;;;;;;4.03;1.63;;;12.80;99.90;;;;;;5073952;28;20951;-65
2021/09/29 10:05:15;;;;;;;0.97;0.97;;;12.60;99.90;;;;;;5073910;28;20768;-65
2021/09/29 10:07:42;;;;;;;0.90;0.90;;;12.60;99.90;;;;;;5073800;28;20402;-65
2021/09/29 10:24:10;;;;;;;0.90;0.90;;;12.50;99.90;;;;;;5073909;28;20494;-66
2021/09/29 10:26:36;;;;;;;0.90;0.90;;;12.50;99.90;;;;;;5073993;28;20412;-66
2021/09/29 10:29:12;;;;;;;0.90;0.90;;;12.50;99.90;;;;;;5073051;28;20424;-67
2021/09/29 10:32:02;;;;;;;0.80;0.80;;;12.40;99.90;;;;;;5073572;28;20186;-67
2021/09/29 10:34:39;;;;;;;0.90;0.90;;;12.60;99.90;;;;;;5073311;28;20417;-69
2021/09/29 10:48:03;;;;;;;1.30;1.20;;;14.30;99.90;;;;;;5073306;28;20408;-66
2021/09/29 11:31:27;;;;;;;1.87;1.50;;;12.20;99.50;;;;;;5072202;28;20459;-71
2021/09/29 11:34:01;;;;;;;1.37;1.30;;;12.00;99.30;;;;;;5072510;28;20425;-69
2021/09/29 11:39:17;;;;;;;1.27;1.27;;;12.10;99.90;;;;;;5071732;28;20425;-65
2021/09/29 12:12:33;;;;;;;2.23;2.13;;;20.80;92.50;;;;;;5071869;28;20413;-66
2021/09/29 12:15:02;;;;;;;2.30;2.20;;;21.10;91.10;;;;;;5071183;28;20421;-65
2021/09/29 12:17:33;;;;;;;2.37;2.27;;;21.60;91.20;;;;;;5071510;28;20409;-65
2021/09/29 12:20:03;;;;;;;2.20;2.10;;;22.10;91.90;;;;;;5071126;28;20940;-66
2021/09/29 12:22:30;;;;;;;2.40;2.30;;;22.40;92.00;;;;;;5071651;28;20454;-66
2021/09/29 12:25:09;;;;;;;4.47;2.57;;;22.40;89.40;;;;;;5071670;28;20405;-67
2021/09/29 12:30:40;;;;;;;2.57;2.37;;;22.80;87.30;;;;;;5071595;28;20466;-67
2021/09/29 12:33:14;;;;;;;2.00;1.90;;;23.00;88.00;;;;;;5074799;28;20471;-66
2021/09/29 12:35:52;;;;;;;2.60;2.50;;;23.20;83.30;;;;;;5075640;28;20496;-67
2021/09/29 12:38:19;;;;;;;2.00;1.90;;;23.40;83.90;;;;;;5075265;28;20486;-67
2021/09/29 12:40:47;;;;;;;2.20;2.10;;;23.40;80.60;;;;;;5075515;28;20971;-66
2021/09/29 12:43:15;;;;;;;2.37;2.27;;;22.90;83.50;;;;;;5075725;28;20410;-66
2021/09/29 12:45:43;;;;;;;2.30;2.20;;;23.20;82.00;;;;;;5075426;28;20444;-66
2021/09/29 12:48:11;;;;;;;2.10;1.83;;;23.60;84.40;;;;;;5074947;28;20413;-66
2021/09/29 12:56:15;;;;;;;1.83;1.67;;;24.80;75.70;;;;;;5076112;28;20424;-66
2021/09/29 12:58:37;;;;;;;4.97;1.77;;;24.30;76.20;;;;;;5074354;28;20449;-66
2021/09/29 13:01:02;;;;;;;2.13;1.60;;;24.80;79.60;;;;;;5074886;28;20445;-66
2021/09/29 13:03:28;;;;;;;2.00;1.90;;;25.10;76.70;;;;;;5075061;28;20194;-66
2021/09/29 13:05:57;;;;;;;2.27;1.30;;;25.10;75.40;;;;;;5075029;28;20167;-66
2021/09/29 13:08:23;;;;;;;1.80;1.70;;;24.90;71.50;;;;;;5074584;28;20183;-67
2021/09/29 13:10:49;;;;;;;1.73;1.50;;;24.70;71.60;;;;;;5074908;28;20578;-67
2021/09/29 13:13:15;;;;;;;1.80;1.70;;;24.60;74.50;;;;;;5056949;28;20167;-67
2021/09/29 13:15:43;;;;;;;1.40;1.40;;;24.70;73.40;;;;;;5074839;28;20171;-67
2021/09/29 13:18:20;;;;;;;1.77;1.67;;;24.80;75.70;;;;;;5074530;28;20436;-67
2021/09/29 13:20:51;;;;;;;1.63;1.53;;;24.40;70.20;;;;;;5075013;28;20452;-67
2021/09/29 13:23:26;;;;;;;2.43;1.37;;;24.40;67.20;;;;;;5074731;28;20898;-67
2021/09/29 13:36:37;;;;;;;3.80;1.30;;;22.60;64.90;;;;;;5074592;28;20405;-66
2021/09/29 13:39:07;;;;;;;1.50;1.40;;;22.00;69.10;;;;;;5074184;28;20804;-68
2021/09/29 13:41:33;;;;;;;2.10;2.00;;;21.70;69.70;;;;;;5074385;28;20457;-66
2021/09/29 13:43:59;;;;;;;2.90;1.33;;;21.20;69.00;;;;;;5073699;28;20425;-66
2021/09/29 13:46:25;;;;;;;1.90;1.70;;;20.80;69.20;;;;;;5074377;28;20404;-66
2021/09/29 13:48:52;;;;;;;3.67;1.97;;;20.40;71.10;;;;;;5116265;22;20705;-66
2021/09/29 13:51:18;;;;;;;5.13;1.87;;;19.90;70.70;;;;;;5114889;28;20173;-66
2021/09/29 13:53:44;;;;;;;4.03;1.80;;;19.40;74.10;;;;;;5114902;28;20392;-66
2021/09/29 13:56:11;;;;;;;2.17;1.63;;;19.10;75.90;;;;;;5114855;28;20174;-66
2021/09/29 13:58:48;;;;;;;3.70;2.03;;;18.90;76.70;;;;;;5114496;28;20181;-66
2021/09/29 14:30:34;;;;;;;3.70;2.50;;;16.10;86.90;;;;;;5093638;28;20817;-66
2021/09/29 14:33:17;;;;;;;4.63;1.87;;;16.30;88.40;;;;;;5092604;28;20425;-65
2021/09/29 14:35:43;;;;;;;3.50;3.00;;;16.70;88.20;;;;;;5093002;28;20400;-66
2021/09/29 14:38:10;;;;;;;1.40;1.40;;;17.20;87.20;;;;;;5093208;28;20947;-66
2021/09/29 14:40:36;;;;;;;1.73;1.73;;;17.80;87.60;;;;;;5093435;28;20735;-66
2021/09/29 14:43:02;;;;;;;2.40;2.10;;;17.70;85.50;;;;;;5093507;28;20400;-66
2021/09/29 14:45:27;;;;;;;2.10;2.00;;;17.40;83.00;;;;;;5093474;28;20194;-66
2021/09/29 14:47:53;;;;;;;2.03;1.60;;;17.20;85.10;;;;;;5093124;28;20170;-66
2021/09/29 14:50:26;;;;;;;2.93;1.67;;;16.90;86.10;;;;;;5093195;28;20170;-65
2021/09/29 14:52:57;;;;;;;2.50;2.10;;;16.60;87.90;;;;;;5093481;28;20221;-66
2021/09/29 14:55:24;;;;;;;3.10;2.90;;;16.40;88.80;;;;;;5093369;28;20780;-66
2021/09/29 14:57:49;;;;;;;1.80;1.63;;;16.20;89.30;;;;;;5093021;28;20397;-66
2021/09/29 15:00:16;;;;;;;2.17;2.07;;;15.80;89.60;;;;;;5092754;28;20451;-66
2021/09/29 15:02:41;;;;;;;1.80;1.70;;;15.80;90.60;;;;;;5093136;28;20179;-65
2021/09/29 15:05:07;;;;;;;1.90;1.80;;;15.70;89.70;;;;;;5093124;28;20411;-66
2021/09/29 15:07:33;;;;;;;2.43;1.80;;;15.40;90.00;;;;;;5093028;28;20167;-65
2021/09/29 15:09:58;;;;;;;2.70;2.50;;;15.40;88.40;;;;;;5092539;28;20205;-66
2021/09/29 15:12:24;;;;;;;2.83;1.70;;;15.20;89.80;;;;;;5092914;28;20246;-66
2021/09/29 15:17:37;;;;;;;1.60;1.30;;;15.10;89.70;;;;;;5092930;28;20231;-65
2021/09/29 15:20:17;;;;;;;1.57;1.50;;;14.90;90.20;;;;;;5092420;28;20807;-65
2021/09/29 15:28:05;;;;;;;1.37;1.27;;;15.40;88.70;;;;;;5092830;28;20166;-65
2021/09/29 15:52:05;;;;;;;3.40;1.40;;;14.30;90.80;;;;;;5112578;28;20780;-65
2021/09/29 15:54:52;;;;;;;1.50;1.40;;;14.10;90.60;;;;;;5112609;28;20399;-65
2021/09/29 16:03:01;;;;;;;2.10;1.40;;;13.80;91.60;;;;;;5112572;28;20419;-65
2021/09/29 16:08:19;;;;;;;1.83;1.73;;;13.60;91.60;;;;;;5139365;22;20400;-65
2021/09/29 16:11:06;;;;;;;2.33;2.23;;;13.60;92.40;;;;;;5052093;28;20172;-65
2021/09/29 16:30:05;;;;;;;1.50;1.43;;;12.70;93.60;;;;;;5051409;28;20433;-66
2021/09/29 16:35:06;;;;;;;2.10;2.00;;;12.50;94.60;;;;;;5051761;28;20417;-66
2021/09/29 16:37:32;;;;;;;1.87;1.77;;;12.40;94.30;;;;;;5051577;28;20414;-65
2021/09/29 16:39:59;;;;;;;2.87;2.60;;;12.40;94.50;;;;;;5050906;28;20851;-65
2021/09/29 16:42:25;;;;;;;2.30;1.87;;;12.20;94.20;;;;;;5051630;28;20430;-65
2021/09/29 16:44:51;;;;;;;1.33;1.30;;;12.20;94.80;;;;;;5051487;28;20413;-65
2021/09/29 16:47:18;;;;;;;1.90;1.80;;;12.10;94.40;;;;;;5051484;28;20403;-65
2021/09/29 16:49:44;;;;;;;2.10;1.70;;;12.10;93.90;;;;;;5051067;28;20866;-66
2021/09/29 16:52:26;;;;;;;1.90;1.80;;;12.00;94.40;;;;;;5051435;28;20406;-66
2021/09/29 16:54:52;;;;;;;1.73;1.63;;;12.00;95.00;;;;;;5051495;28;20205;-65